Time;durP1;ratioP1;P1;durP2;ratioP2;P2;SDS_P1;SDS_P2;PMS_P1;PMS_P2;Temp;Humidity;BMP_temperature;BMP_pressure;BME280_temperature;BME280_humidity;BME280_pressure;Samples;Min_cycle;Max_cycle;Signal;HPM_P1;HPM_P2
2023/06/11 00:01:57;;;;;;;5.27;4.87;;;19.90;99.90;;;20.30;nan;94418.56;5054304;28;20468;-69
2023/06/11 00:04:26;;;;;;;4.83;4.40;;;19.90;99.90;;;20.26;66.54;94420.81;5054840;28;20883;-69
2023/06/11 00:06:56;;;;;;;5.67;4.83;;;19.90;99.90;;;20.23;67.02;94418.56;5058667;28;20462;-60
2023/06/11 00:09:23;;;;;;;13.27;4.47;;;19.80;99.90;;;20.19;66.58;94418.16;5053556;28;20483;-69
2023/06/11 00:11:52;;;;;;;6.00;4.10;;;19.80;99.90;;;20.15;66.57;94424.13;5053562;28;20460;-68
2023/06/11 00:14:20;;;;;;;6.13;5.17;;;19.70;99.90;;;20.10;66.67;94418.63;5058364;28;20550;-60
2023/06/11 00:16:47;;;;;;;6.80;4.60;;;19.70;99.90;;;20.05;66.84;94422.72;5054157;28;20459;-59
2023/06/11 00:19:14;;;;;;;5.67;5.07;;;19.60;99.90;;;20.01;67.15;94416.16;5049133;28;20471;-59
2023/06/11 00:21:43;;;;;;;6.93;4.07;;;19.60;99.90;;;19.97;67.27;94420.28;5056314;28;20452;-61
2023/06/11 00:24:12;;;;;;;4.90;4.50;;;19.60;99.90;;;19.93;67.27;94419.06;5054215;28;20488;-60
2023/06/11 00:26:40;;;;;;;4.50;4.00;;;19.50;99.90;;;19.89;67.08;94420.50;5052702;28;20468;-59
2023/06/11 00:29:07;;;;;;;5.43;4.87;;;19.50;99.90;;;19.85;67.29;94420.09;5051276;28;20510;-60
2023/06/11 00:31:34;;;;;;;5.73;4.80;;;19.50;99.90;;;19.85;67.53;94427.31;5051968;28;21098;-69
2023/06/11 00:34:02;;;;;;;5.60;4.30;;;19.40;99.90;;;19.81;67.59;94426.88;5052258;28;20491;-59
2023/06/11 00:36:29;;;;;;;5.70;5.07;;;19.40;99.90;;;19.78;67.07;94421.16;5050271;28;20522;-60
2023/06/11 00:38:58;;;;;;;8.90;4.70;;;19.40;99.90;;;19.74;67.54;94414.56;5055667;28;20541;-59
2023/06/11 00:41:29;;;;;;;7.37;5.30;;;19.40;99.90;;;19.73;67.35;94424.41;5048322;28;20471;-59
2023/06/11 00:43:56;;;;;;;4.73;4.30;;;19.30;99.90;;;19.67;67.19;94420.75;5050034;28;20531;-59
2023/06/11 00:46:24;;;;;;;4.70;4.30;;;19.30;99.90;;;19.64;67.32;94423.81;5048619;28;20456;-70
2023/06/11 00:48:51;;;;;;;5.27;4.80;;;19.30;99.90;;;19.61;67.69;94421.56;5053299;28;20553;-69
2023/06/11 00:51:19;;;;;;;5.93;4.80;;;19.20;99.90;;;19.59;67.90;94425.47;5055131;28;20456;-61
2023/06/11 00:53:47;;;;;;;5.43;5.00;;;19.20;99.90;;;19.56;68.04;94418.69;5050842;28;20536;-70
2023/06/11 00:56:17;;;;;;;6.13;4.80;;;19.20;99.90;;;19.55;68.24;94426.88;5050452;28;20978;-67
2023/06/11 00:58:47;;;;;;;10.07;5.10;;;19.10;99.90;;;19.52;67.75;94414.81;5050997;28;20592;-69
2023/06/11 01:01:17;;;;;;;5.57;4.93;;;19.10;99.90;;;19.50;68.79;94409.66;5050473;28;20448;-70
2023/06/11 01:03:44;;;;;;;8.47;5.20;;;19.10;99.90;;;19.50;68.28;94419.50;5051231;28;20887;-57
2023/06/11 01:06:17;;;;;;;8.57;5.70;;;19.10;99.90;;;19.50;68.31;94425.69;5055697;28;21082;-59
2023/06/11 01:08:44;;;;;;;8.10;5.20;;;19.10;99.90;;;19.49;68.57;94429.34;5051561;28;20487;-67
2023/06/11 01:11:13;;;;;;;8.07;4.00;;;19.10;99.90;;;19.50;68.65;94419.50;5052121;28;20918;-68
2023/06/11 01:13:41;;;;;;;10.77;4.63;;;19.10;99.90;;;19.50;68.38;94422.16;5049252;28;20539;-67
2023/06/11 01:16:13;;;;;;;7.63;5.10;;;19.10;99.90;;;19.49;69.03;94417.88;5051669;28;21341;-69
2023/06/11 01:18:47;;;;;;;13.03;5.40;;;19.10;99.90;;;19.49;68.41;94421.34;5052050;28;20483;-69
2023/06/11 01:21:17;;;;;;;6.50;5.27;;;19.10;99.90;;;19.50;68.54;94423.00;5055759;28;20465;-68
2023/06/11 01:23:51;;;;;;;4.70;4.30;;;19.10;99.90;;;19.51;68.91;94416.63;5052949;28;21085;-61
2023/06/11 01:26:29;;;;;;;5.17;4.80;;;19.10;99.90;;;19.51;69.24;94415.81;5052964;28;20458;-69
2023/06/11 01:28:59;;;;;;;6.97;4.00;;;19.10;99.90;;;19.53;68.47;94424.44;5051635;28;20570;-58
2023/06/11 01:31:29;;;;;;;5.60;5.20;;;19.10;99.90;;;19.52;69.27;94422.81;5055382;28;20999;-68
2023/06/11 01:33:57;;;;;;;5.40;4.70;;;19.10;99.90;;;19.50;68.92;94407.00;5053414;28;20467;-68
2023/06/11 01:36:28;;;;;;;6.87;4.90;;;19.10;99.90;;;19.50;68.80;94409.66;5049036;28;20483;-59
2023/06/11 01:38:58;;;;;;;5.53;5.07;;;19.10;99.90;;;19.50;69.07;94416.84;5052995;28;20475;-57
2023/06/11 01:41:27;;;;;;;7.37;4.43;;;19.10;99.90;;;19.49;68.82;94421.34;5049330;28;20476;-69
2023/06/11 01:43:54;;;;;;;5.70;4.53;;;19.10;99.90;;;19.48;68.55;94417.03;5050620;28;20617;-68
2023/06/11 01:46:23;;;;;;;7.40;4.83;;;19.10;99.90;;;19.48;68.38;94425.03;5054125;28;20550;-67
2023/06/11 01:48:50;;;;;;;6.57;5.00;;;19.10;99.90;;;19.48;68.31;94421.56;5050455;28;20508;-67
2023/06/11 01:51:20;;;;;;;10.07;4.53;;;19.10;99.90;;;19.48;67.88;94422.38;5054355;28;20480;-60
2023/06/11 01:53:48;;;;;;;4.57;4.17;;;19.10;99.90;;;19.49;67.84;94423.22;5049309;28;20970;-59
2023/06/11 01:56:15;;;;;;;8.60;4.30;;;19.10;99.90;;;19.49;67.52;94424.03;5047683;28;20470;-69
2023/06/11 01:58:45;;;;;;;4.47;4.07;;;19.10;99.90;;;19.50;67.79;94419.50;5051132;28;20454;-59
2023/06/11 02:01:12;;;;;;;6.13;4.17;;;19.10;99.90;;;19.50;67.25;94422.16;5049627;28;20471;-59
2023/06/11 02:03:42;;;;;;;4.67;4.27;;;19.10;99.90;;;19.52;67.62;94428.13;5053133;28;21203;-59
2023/06/11 02:06:09;;;;;;;8.50;5.10;;;19.10;99.90;;;19.52;67.51;94420.94;5049510;28;20888;-60
2023/06/11 02:08:36;;;;;;;13.40;4.80;;;19.10;99.90;;;19.51;67.31;94421.16;5051446;28;20455;-70
2023/06/11 02:11:04;;;;;;;6.63;4.67;;;19.10;99.90;;;19.52;67.25;94428.94;5050956;28;20464;-69
2023/06/11 02:13:31;;;;;;;6.53;4.80;;;19.10;99.90;;;19.53;67.65;94432.44;5048268;28;20464;-70
2023/06/11 02:15:59;;;;;;;12.13;4.33;;;19.10;99.90;;;19.54;67.36;94431.41;5051080;28;20952;-58
2023/06/11 02:18:26;;;;;;;4.23;3.93;;;19.10;99.90;;;19.53;67.68;94430.59;5049656;28;20459;-59
2023/06/11 02:20:55;;;;;;;7.60;4.17;;;19.10;99.90;;;19.53;67.50;94425.25;5051764;28;20462;-68
2023/06/11 02:23:22;;;;;;;5.13;4.63;;;19.10;99.90;;;19.52;67.35;94428.13;5050887;28;20467;-59
2023/06/11 02:25:49;;;;;;;6.13;4.83;;;19.10;99.90;;;19.53;67.83;94429.75;5047280;28;20518;-69
2023/06/11 02:28:17;;;;;;;5.43;4.93;;;19.10;99.90;;;19.53;67.67;94424.44;5046508;28;20998;-60
2023/06/11 02:30:45;;;;;;;6.63;5.13;;;19.10;99.90;;;19.52;67.72;94425.47;5046348;28;21012;-60
2023/06/11 02:33:12;;;;;;;8.03;4.63;;;19.10;99.90;;;19.51;67.45;94431.81;5050687;28;20525;-68
2023/06/11 02:35:39;;;;;;;5.10;4.70;;;19.10;99.90;;;19.51;67.34;94423.81;5054429;28;20479;-68
2023/06/11 02:38:08;;;;;;;5.60;5.10;;;19.10;99.90;;;19.45;67.75;94427.31;5052285;28;20463;-60
2023/06/11 02:40:35;;;;;;;4.60;4.20;;;19.10;99.90;;;19.47;67.70;94430.59;5049283;28;20502;-67
2023/06/11 02:43:03;;;;;;;5.60;5.00;;;19.10;99.90;;;19.46;67.86;94434.28;5047742;28;20455;-67
2023/06/11 02:45:30;;;;;;;5.77;5.27;;;19.10;99.90;;;19.46;67.33;94428.97;5050277;28;21070;-68
2023/06/11 02:47:57;;;;;;;6.60;5.00;;;19.10;99.90;;;19.46;67.86;94428.97;5054622;28;20872;-68
2023/06/11 02:50:24;;;;;;;6.00;5.50;;;19.10;99.90;;;19.48;67.77;94424.22;5057976;28;21493;-68
2023/06/11 02:52:52;;;;;;;5.07;4.67;;;19.10;99.90;;;19.46;67.73;94419.09;5056892;28;20459;-67
2023/06/11 02:55:21;;;;;;;6.43;4.77;;;19.10;99.90;;;19.48;68.15;94429.56;5056601;28;20479;-59
2023/06/11 02:57:48;;;;;;;6.47;4.87;;;19.10;99.90;;;19.49;68.02;94433.88;5052967;28;20535;-60
2023/06/11 03:00:16;;;;;;;10.13;4.50;;;19.10;99.90;;;19.49;67.67;94426.69;5053399;28;20483;-60
2023/06/11 03:02:43;;;;;;;6.70;4.60;;;19.10;99.90;;;19.49;68.18;94424.03;5059973;28;20812;-69
2023/06/11 03:05:11;;;;;;;10.93;4.20;;;19.10;99.90;;;19.50;68.30;94435.50;5058396;28;20914;-69
2023/06/11 03:07:38;;;;;;;5.17;4.67;;;19.10;99.90;;;19.50;68.28;94431.00;5051581;28;20543;-60
2023/06/11 03:10:07;;;;;;;5.20;4.83;;;19.10;99.90;;;19.53;68.08;94435.94;5058948;28;20479;-58
2023/06/11 03:12:35;;;;;;;5.93;5.33;;;19.10;99.90;;;19.54;68.15;94428.75;5052776;28;21033;-68
2023/06/11 03:15:03;;;;;;;5.70;5.20;;;19.10;99.90;;;19.57;67.94;94435.53;5058884;28;20470;-68
2023/06/11 03:17:30;;;;;;;12.37;5.03;;;19.20;99.90;;;19.57;67.53;94433.66;5052728;28;20530;-59
2023/06/11 03:19:58;;;;;;;4.63;4.30;;;19.20;99.90;;;19.58;67.42;94431.81;5055291;28;20470;-59
2023/06/11 03:22:25;;;;;;;5.60;4.93;;;19.20;99.90;;;19.61;67.47;94434.91;5056434;28;20458;-61
2023/06/11 03:24:52;;;;;;;13.07;4.97;;;19.20;99.90;;;19.62;67.24;94436.53;5055517;28;20564;-69
2023/06/11 03:27:20;;;;;;;9.43;5.00;;;19.20;99.90;;;19.64;67.58;94442.50;5054337;28;20451;-68
2023/06/11 03:29:48;;;;;;;8.63;5.10;;;19.30;99.90;;;19.66;67.18;94448.44;5055090;28;20999;-58
2023/06/11 03:32:16;;;;;;;5.50;5.00;;;19.20;99.90;;;19.68;67.17;94453.56;5053663;28;20447;-59
2023/06/11 03:34:43;;;;;;;9.07;5.60;;;19.30;99.90;;;19.71;66.94;94461.16;5056276;28;20529;-67
2023/06/11 03:37:11;;;;;;;8.40;5.60;;;19.30;99.90;;;19.73;66.43;94455.63;5056435;28;20839;-68
2023/06/11 03:39:38;;;;;;;5.23;4.83;;;19.30;99.90;;;19.74;66.83;94465.28;5058219;28;20479;-60
2023/06/11 03:42:06;;;;;;;11.90;5.23;;;19.30;99.90;;;19.76;67.01;94465.88;5051365;28;20467;-68
2023/06/11 03:44:34;;;;;;;6.10;5.47;;;19.40;99.90;;;19.77;66.65;94462.19;5049519;28;20579;-66
2023/06/11 03:47:03;;;;;;;7.80;5.80;;;19.40;99.90;;;19.78;66.62;94461.16;5052468;28;20455;-60
2023/06/11 03:49:30;;;;;;;6.20;5.10;;;19.40;99.90;;;19.79;66.64;94473.50;5054719;28;20509;-66
2023/06/11 03:51:58;;;;;;;7.70;5.60;;;19.40;99.90;;;19.78;66.65;94470.00;5052602;28;20531;-61
2023/06/11 03:54:25;;;;;;;13.30;6.07;;;19.40;99.90;;;19.80;66.59;94461.78;5049113;28;20478;-67
2023/06/11 03:56:53;;;;;;;10.00;5.93;;;19.40;99.90;;;19.79;66.54;94460.97;5056969;28;20455;-60
2023/06/11 03:59:20;;;;;;;10.63;5.07;;;19.40;99.90;;;19.80;66.51;94461.78;5053379;28;20483;-60
2023/06/11 04:01:47;;;;;;;9.40;6.47;;;19.40;99.90;;;19.80;66.54;94465.28;5051671;28;20474;-68
2023/06/11 04:04:16;;;;;;;6.80;5.00;;;19.40;99.90;;;19.80;67.07;94457.28;5052798;28;20502;-69
2023/06/11 04:06:44;;;;;;;8.13;5.40;;;19.40;99.90;;;19.79;66.89;94455.63;5052343;28;20456;-59
2023/06/11 04:09:11;;;;;;;10.00;5.07;;;19.40;99.90;;;19.79;66.85;94458.28;5053903;28;20850;-59
2023/06/11 04:11:38;;;;;;;10.27;5.23;;;19.40;99.90;;;19.81;66.96;94460.75;5049527;28;20448;-68
2023/06/11 04:14:06;;;;;;;9.20;5.90;;;19.40;99.90;;;19.81;66.94;94458.91;5050662;28;20518;-68
2023/06/11 04:16:33;;;;;;;11.57;6.40;;;19.40;99.90;;;19.82;66.60;94459.75;5054763;28;20470;-61
2023/06/11 04:19:00;;;;;;;11.53;6.50;;;19.40;99.90;;;19.83;66.98;94461.38;5049221;28;20487;-58
2023/06/11 04:21:29;;;;;;;5.90;5.30;;;19.40;99.90;;;19.84;67.10;94463.00;5063506;28;20459;-60
2023/06/11 04:23:56;;;;;;;7.00;6.40;;;19.40;99.90;;;19.87;66.86;94466.06;5050595;28;21176;-59
2023/06/11 04:26:25;;;;;;;13.20;5.93;;;19.50;99.90;;;19.91;66.58;94465.66;5052592;28;20468;-60
2023/06/11 04:28:53;;;;;;;6.17;5.57;;;19.50;99.90;;;19.94;66.56;94468.75;5050314;28;20467;-58
2023/06/11 04:31:20;;;;;;;8.77;5.43;;;19.50;99.90;;;19.94;66.94;94463.41;5049464;28;20527;-60
2023/06/11 04:33:47;;;;;;;5.97;5.17;;;19.50;99.90;;;19.95;66.40;94457.03;5052077;28;20577;-67
2023/06/11 04:36:15;;;;;;;10.50;5.43;;;19.50;99.90;;;19.94;66.36;94462.59;5052327;28;20538;-68
2023/06/11 04:38:44;;;;;;;9.37;4.90;;;19.50;99.90;;;19.95;66.10;94469.56;5053864;28;20463;-67
2023/06/11 04:41:12;;;;;;;9.13;6.13;;;19.50;99.90;;;19.95;66.29;94458.91;5054470;28;20468;-60
2023/06/11 04:43:41;;;;;;;7.43;5.20;;;19.50;99.90;;;19.97;66.00;94457.66;5051944;28;20459;-67
2023/06/11 04:46:09;;;;;;;5.70;5.20;;;19.50;99.90;;;19.97;66.20;94459.50;5054826;28;20487;-67
2023/06/11 04:48:37;;;;;;;9.67;4.80;;;19.60;99.90;;;20.00;66.02;94453.75;5050424;28;20644;-59
2023/06/11 04:51:06;;;;;;;9.43;4.53;;;19.60;99.90;;;20.03;65.91;94462.16;5058229;28;20459;-60
2023/06/11 04:53:37;;;;;;;7.53;5.33;;;19.60;99.90;;;20.06;66.21;94456.41;5055252;28;20542;-60
2023/06/11 04:56:05;;;;;;;5.10;4.63;;;19.60;99.90;;;20.11;66.23;94458.47;5048348;28;20924;-68
2023/06/11 04:58:33;;;;;;;5.83;5.43;;;19.70;99.90;;;20.17;66.05;94462.13;5056291;28;20487;-69
2023/06/11 05:01:00;;;;;;;11.50;4.90;;;19.80;99.90;;;20.26;65.80;94460.88;5054274;28;20471;-67
2023/06/11 05:03:29;;;;;;;6.50;5.27;;;19.80;99.90;;;20.34;65.50;94452.66;5047574;28;20966;-69
2023/06/11 05:05:57;;;;;;;6.53;4.93;;;19.90;99.90;;;20.40;65.04;94450.97;5052648;28;20499;-69
2023/06/11 05:08:28;;;;;;;5.33;4.83;;;19.90;99.90;;;20.46;64.98;94460.00;5053685;28;20475;-68
2023/06/11 05:10:55;;;;;;;7.10;5.10;;;20.00;99.90;;;20.53;64.79;94458.94;5046107;28;20452;-67
2023/06/11 05:13:24;;;;;;;9.43;5.07;;;20.10;99.90;;;20.60;64.84;94456.22;5049469;28;20462;-61
2023/06/11 05:15:52;;;;;;;10.50;5.40;;;20.20;99.90;;;20.68;64.49;94461.38;5054805;28;20455;-59
2023/06/11 05:18:19;;;;;;;12.70;4.70;;;20.20;99.90;;;20.75;64.40;94464.81;5050048;28;20835;-67
2023/06/11 05:20:48;;;;;;;6.40;5.10;;;20.30;99.90;;;20.83;64.15;94462.94;5056522;28;20486;-66
2023/06/11 05:23:15;;;;;;;5.00;4.60;;;20.40;99.90;;;20.90;64.02;94464.56;5048126;28;20721;-68
2023/06/11 05:25:46;;;;;;;5.93;4.23;;;20.40;99.90;;;20.96;63.45;94470.91;5055750;28;20490;-60
2023/06/11 05:28:14;;;;;;;5.47;4.77;;;20.50;99.90;;;21.03;63.02;94458.31;5049089;28;20564;-60
2023/06/11 05:30:45;;;;;;;7.37;4.17;;;20.60;99.90;;;21.11;63.03;94471.41;5052357;28;20480;-67
2023/06/11 05:33:12;;;;;;;9.03;5.07;;;20.60;99.90;;;21.19;62.34;94469.53;5053280;28;20824;-68
2023/06/11 05:35:40;;;;;;;8.47;5.00;;;20.70;99.90;;;21.26;62.19;94473.00;5052604;28;20483;-69
2023/06/11 05:38:08;;;;;;;6.00;4.87;;;20.80;99.90;;;21.34;62.32;94472.72;5054655;28;20455;-67
2023/06/11 05:40:36;;;;;;;9.87;4.90;;;20.90;99.90;;;21.42;61.90;94477.78;5048538;28;20572;-61
2023/06/11 05:43:04;;;;;;;6.03;4.37;;;20.90;99.90;;;21.52;61.73;94473.84;5052894;28;20513;-61
2023/06/11 05:45:31;;;;;;;12.40;4.40;;;21.00;99.90;;;21.60;60.61;94481.63;5048789;28;20487;-68
2023/06/11 05:48:00;;;;;;;5.63;4.50;;;21.10;99.90;;;21.64;60.90;94482.81;5051627;28;20452;-60
2023/06/11 05:50:28;;;;;;;5.83;4.30;;;21.20;99.90;;;21.72;60.64;94479.03;5051622;28;21004;-60
2023/06/11 05:52:55;;;;;;;10.97;5.07;;;21.30;99.90;;;21.81;60.33;94486.59;5053026;28;20455;-64
2023/06/11 05:55:22;;;;;;;10.93;5.80;;;21.40;99.90;;;21.88;60.21;94483.06;5050008;28;20516;-60
2023/06/11 05:57:50;;;;;;;6.27;4.50;;;21.40;99.90;;;21.94;59.66;94495.56;5055949;28;20971;-65
2023/06/11 06:00:18;;;;;;;4.63;4.20;;;21.50;99.90;;;22.01;60.12;94485.59;5047273;28;20601;-64
2023/06/11 06:02:45;;;;;;;6.10;5.10;;;21.60;99.90;;;22.11;60.16;94483.22;5045006;28;20448;-60
2023/06/11 06:05:15;;;;;;;5.53;4.03;;;21.60;99.90;;;22.25;60.15;94483.13;5053454;28;21014;-65
2023/06/11 06:07:42;;;;;;;11.20;4.87;;;21.70;99.90;;;22.41;59.41;94492.44;5053046;28;20888;-65
2023/06/11 06:10:10;;;;;;;9.10;5.53;;;21.90;99.90;;;22.56;59.22;94491.03;5050206;28;20561;-60
2023/06/11 06:12:38;;;;;;;6.10;4.47;;;22.00;99.90;;;22.72;59.29;94484.22;5053975;28;20459;-66
2023/06/11 06:15:07;;;;;;;7.70;5.73;;;22.20;99.90;;;22.86;59.29;94478.72;5050451;28;20583;-62
2023/06/11 06:17:34;;;;;;;6.50;5.47;;;22.30;99.90;;;22.99;59.17;94483.09;5050516;28;20984;-65
2023/06/11 06:20:01;;;;;;;10.03;5.57;;;22.50;99.90;;;23.13;58.17;94478.38;5053559;28;20479;-65
2023/06/11 06:22:31;;;;;;;14.93;5.10;;;22.60;99.90;;;23.29;58.61;94482.31;5053979;28;20479;-66
2023/06/11 06:24:58;;;;;;;9.60;4.80;;;22.80;99.80;;;23.43;58.63;94481.06;5048379;28;20510;-64
2023/06/11 06:27:25;;;;;;;7.33;5.20;;;22.90;99.70;;;23.56;57.46;94483.56;5045643;28;20590;-62
2023/06/11 06:29:53;;;;;;;5.90;5.10;;;23.00;99.40;;;23.66;57.72;94480.28;5052913;28;20471;-65
2023/06/11 06:32:20;;;;;;;6.53;4.90;;;23.10;99.10;;;23.78;56.92;94480.28;5046938;28;20548;-59
2023/06/11 06:34:48;;;;;;;4.60;4.20;;;23.20;98.90;;;23.86;57.54;94482.69;5048756;28;20541;-63
2023/06/11 06:37:15;;;;;;;10.43;5.30;;;23.30;98.80;;;23.95;56.83;94478.59;5060277;28;20439;-61
2023/06/11 06:39:44;;;;;;;9.23;5.23;;;23.40;98.70;;;24.03;57.10;94473.91;5058495;28;20486;-67
2023/06/11 06:42:12;;;;;;;8.07;5.27;;;23.50;98.50;;;24.12;56.47;94470.66;5056280;28;20477;-61
2023/06/11 06:44:39;;;;;;;13.53;5.20;;;23.60;98.30;;;24.20;56.05;94474.03;5053816;28;20476;-66
2023/06/11 06:47:08;;;;;;;7.73;4.57;;;23.70;98.10;;;24.26;55.86;94471.25;5054354;28;20449;-63
2023/06/11 06:49:35;;;;;;;5.73;4.13;;;23.70;98.00;;;24.38;55.73;94473.09;5052721;28;20482;-66
2023/06/11 06:52:18;;;;;;;6.10;4.77;;;23.80;97.80;;;24.55;55.99;94479.38;5058725;28;20455;-62
2023/06/11 06:54:47;;;;;;;26.07;4.57;;;24.00;97.80;;;24.69;55.17;94469.19;5052360;28;20481;-64
2023/06/11 06:57:15;;;;;;;5.03;3.97;;;24.10;97.30;;;24.85;54.92;94473.84;5052776;28;20451;-64
2023/06/11 06:59:44;;;;;;;8.20;4.67;;;24.30;97.20;;;25.04;54.69;94471.78;5051687;28;20475;-64
2023/06/11 07:02:11;;;;;;;5.93;5.13;;;24.50;96.90;;;25.19;54.13;94475.81;5050040;28;20451;-65
2023/06/11 07:04:38;;;;;;;21.47;4.93;;;24.60;96.30;;;25.29;54.30;94473.34;5054220;28;20465;-63
2023/06/11 07:07:06;;;;;;;8.63;4.57;;;24.70;96.10;;;25.38;53.71;94465.72;5057045;28;20497;-60
2023/06/11 07:09:33;;;;;;;11.97;5.20;;;24.80;95.90;;;25.51;53.42;94475.34;5054447;28;20531;-64
2023/06/11 07:12:02;;;;;;;20.07;5.40;;;25.00;95.60;;;25.62;53.18;94460.97;5053847;28;20550;-60
2023/06/11 07:14:30;;;;;;;4.70;4.13;;;25.10;95.40;;;25.72;53.07;94463.84;5052814;28;20473;-61
2023/06/11 07:16:58;;;;;;;10.17;5.57;;;25.20;95.10;;;25.83;52.91;94466.72;5050259;28;20952;-65
2023/06/11 07:19:25;;;;;;;9.53;5.60;;;25.30;94.90;;;25.92;52.33;94468.75;5055587;28;20509;-61
2023/06/11 07:21:53;;;;;;;7.57;5.20;;;25.40;94.60;;;26.03;52.13;94467.06;5056490;28;20554;-67
2023/06/11 07:24:20;;;;;;;8.37;5.40;;;25.50;94.20;;;26.11;51.33;94463.13;5049984;28;20479;-60
2023/06/11 07:26:48;;;;;;;6.23;4.97;;;25.60;93.30;;;26.14;51.34;94453.75;5050099;28;20491;-67
2023/06/11 07:29:17;;;;;;;8.63;5.07;;;25.60;93.20;;;26.22;51.69;94464.09;5052187;28;21328;-68
2023/06/11 07:31:44;;;;;;;9.53;4.50;;;25.70;93.50;;;26.35;51.48;94455.63;5053948;28;20465;-61
2023/06/11 07:34:12;;;;;;;5.70;4.53;;;25.70;93.30;;;26.56;51.60;94466.72;5049034;28;20474;-68
2023/06/11 07:36:40;;;;;;;10.90;5.70;;;25.90;93.20;;;26.92;50.48;94469.88;5056560;28;21012;-65
2023/06/11 07:39:07;;;;;;;7.93;5.33;;;26.20;93.00;;;27.30;49.80;94460.06;5052940;28;20490;-60
2023/06/11 07:41:35;;;;;;;13.00;5.20;;;26.60;92.30;;;27.64;49.34;94457.16;5053186;28;20482;-60
2023/06/11 07:44:02;;;;;;;8.43;4.87;;;26.90;91.40;;;27.91;48.41;94451.69;5050465;28;20560;-60
2023/06/11 07:46:31;;;;;;;14.50;5.90;;;27.20;91.10;;;28.13;48.60;94456.19;5050949;28;20479;-66
2023/06/11 07:48:58;;;;;;;5.20;4.73;;;27.40;90.20;;;28.21;47.99;94456.53;5054072;28;20486;-65
2023/06/11 07:51:26;;;;;;;7.27;4.77;;;27.60;89.30;;;28.36;47.18;94446.88;5056140;28;20975;-65
2023/06/11 07:53:56;;;;;;;5.67;5.07;;;27.70;88.50;;;28.56;46.80;94446.97;5051184;28;20501;-60
2023/06/11 07:56:24;;;;;;;7.70;5.10;;;27.90;86.80;;;28.70;45.91;94449.25;5054591;28;20526;-65
2023/06/11 07:58:51;;;;;;;6.03;5.07;;;28.00;85.30;;;28.73;45.17;94441.41;5055346;28;20903;-59
2023/06/11 08:01:18;;;;;;;10.13;4.70;;;28.10;83.30;;;28.73;45.32;94436.00;5047841;28;20577;-65
2023/06/11 08:03:47;;;;;;;14.37;4.73;;;28.10;82.50;;;28.88;44.48;94443.38;5055355;28;20535;-66
2023/06/11 08:06:15;;;;;;;8.83;5.20;;;28.20;79.60;;;29.16;45.50;94444.00;5053283;28;20526;-66
2023/06/11 08:08:42;;;;;;;6.53;5.50;;;28.40;82.10;;;29.48;44.56;94437.56;5053886;28;20606;-65
2023/06/11 08:11:09;;;;;;;10.50;5.80;;;28.70;80.50;;;29.71;44.41;94435.41;5049149;28;20466;-61
2023/06/11 08:13:38;;;;;;;11.30;5.30;;;29.00;79.90;;;29.88;44.26;94444.13;5057826;28;20223;-61
2023/06/11 08:16:05;;;;;;;8.73;4.40;;;29.20;78.40;;;29.92;43.40;94433.56;5050469;28;20455;-70
2023/06/11 08:18:33;;;;;;;6.60;4.60;;;29.30;77.00;;;30.09;43.45;94436.00;5055284;28;20236;-69
2023/06/11 08:21:02;;;;;;;7.03;4.87;;;29.50;77.20;;;30.33;42.65;94439.72;5050860;28;20458;-61
2023/06/11 08:23:29;;;;;;;6.20;4.50;;;29.70;75.90;;;30.53;42.27;94435.38;5046410;28;20211;-65
2023/06/11 08:25:58;;;;;;;4.80;4.33;;;29.80;75.20;;;30.52;42.65;94433.72;5051381;28;20228;-65
2023/06/11 08:28:26;;;;;;;9.33;4.87;;;29.90;73.90;;;30.45;39.97;94436.75;5058190;28;20774;-61
2023/06/11 08:30:54;;;;;;;11.37;5.40;;;29.90;69.10;;;30.18;41.19;94437.88;5057634;28;20232;-62
2023/06/11 08:33:22;;;;;;;5.40;4.97;;;29.70;70.90;;;29.94;42.56;94426.75;5054657;28;20291;-62
2023/06/11 08:35:49;;;;;;;7.00;5.20;;;29.50;71.30;;;29.93;42.63;94427.88;5054738;28;20221;-61
2023/06/11 08:38:18;;;;;;;6.03;4.90;;;29.40;72.30;;;30.03;42.70;94419.69;5054447;28;20205;-64
2023/06/11 08:40:46;;;;;;;8.13;5.13;;;29.50;72.70;;;30.28;43.04;94425.38;5052450;28;20228;-66
2023/06/11 08:43:13;;;;;;;16.63;5.03;;;29.60;72.50;;;30.37;42.08;94432.66;5057175;28;20205;-64
2023/06/11 08:45:41;;;;;;;6.10;5.50;;;29.70;70.40;;;30.23;40.10;94436.25;5048629;28;20290;-64
2023/06/11 08:48:08;;;;;;;5.20;4.70;;;29.70;67.20;;;30.15;41.13;94432.19;5061127;28;20208;-62
2023/06/11 08:50:36;;;;;;;5.80;5.30;;;29.60;69.40;;;30.25;41.51;94437.56;5055470;28;20212;-65
2023/06/11 08:53:04;;;;;;;6.20;5.60;;;29.60;69.30;;;30.26;40.43;94439.22;5057787;28;20214;-65
2023/06/11 08:55:33;;;;;;;12.33;6.50;;;29.70;67.50;;;30.11;39.67;94426.47;5053491;28;20225;-60
2023/06/11 08:58:00;;;;;;;7.40;6.70;;;29.60;66.30;;;30.13;40.65;94428.91;5057231;28;20215;-61
2023/06/11 09:00:28;;;;;;;7.20;5.83;;;29.60;67.50;;;30.28;40.15;94428.09;5050314;28;20228;-64
2023/06/11 09:02:55;;;;;;;5.17;4.77;;;29.70;67.50;;;30.36;39.89;94427.50;5052356;28;20680;-71
2023/06/11 09:05:22;;;;;;;7.80;4.70;;;29.70;66.00;;;30.35;39.33;94429.41;5052459;28;20285;-60
2023/06/11 09:07:50;;;;;;;4.90;4.50;;;29.80;65.60;;;30.44;39.40;94423.44;5058139;28;20198;-61
2023/06/11 09:10:17;;;;;;;4.70;4.30;;;29.90;65.10;;;30.56;39.59;94413.09;5054279;28;20224;-67
2023/06/11 09:12:46;;;;;;;5.03;4.63;;;29.90;64.50;;;30.73;38.57;94410.84;5052796;28;20287;-65
2023/06/11 09:15:15;;;;;;;8.30;5.00;;;30.10;63.50;;;30.84;38.37;94416.25;5053898;28;20231;-66
2023/06/11 09:17:46;;;;;;;5.20;4.80;;;30.20;62.70;;;30.90;38.58;94406.97;5053076;28;20262;-65
2023/06/11 09:20:14;;;;;;;7.67;5.60;;;30.20;62.50;;;30.98;38.80;94408.34;5051614;28;20217;-61
2023/06/11 09:22:43;;;;;;;5.33;4.93;;;30.40;62.60;;;31.15;38.60;94402.53;5051053;28;20681;-61
2023/06/11 09:25:16;;;;;;;8.77;4.73;;;30.40;62.70;;;31.33;38.39;94401.06;5049886;28;20269;-61
2023/06/11 09:27:46;;;;;;;6.97;4.77;;;30.60;62.00;;;31.26;37.99;94402.19;5049919;28;20685;-67
2023/06/11 09:30:16;;;;;;;5.00;4.50;;;30.60;60.90;;;31.07;37.80;94399.31;5052972;28;20299;-67
2023/06/11 09:32:45;;;;;;;4.77;4.20;;;30.50;60.20;;;30.99;38.32;94393.66;5057359;28;20203;-61
2023/06/11 09:35:13;;;;;;;5.97;5.47;;;30.40;60.20;;;30.98;37.56;94389.31;5051092;28;20283;-65
2023/06/11 09:37:45;;;;;;;6.70;4.90;;;30.40;59.40;;;30.89;37.18;94394.47;5055031;28;20231;-67
2023/06/11 09:40:15;;;;;;;71.10;48.57;;;30.30;59.80;;;30.92;37.35;94389.31;5051033;28;20220;-66
2023/06/11 09:42:45;;;;;;;19.37;5.27;;;30.30;59.50;;;31.00;35.76;94387.97;5051960;28;20580;-62
2023/06/11 09:45:17;;;;;;;5.60;5.10;;;30.40;58.00;;;30.88;36.52;94390.16;5053268;28;20239;-64
2023/06/11 09:47:45;;;;;;;11.30;5.00;;;30.40;57.70;;;30.75;35.59;94397.81;5050216;28;20517;-68
2023/06/11 09:50:14;;;;;;;7.43;5.10;;;30.30;56.50;;;30.65;36.58;94388.91;5057362;28;20551;-63
2023/06/11 09:52:42;;;;;;;6.77;5.57;;;30.10;57.00;;;30.48;36.17;94402.81;5059704;28;20287;-66
2023/06/11 09:55:10;;;;;;;7.50;4.83;;;30.00;57.10;;;30.32;35.68;94389.25;5060217;28;20232;-60
2023/06/11 09:57:38;;;;;;;7.23;4.83;;;29.90;56.50;;;30.31;36.22;94390.34;5051056;28;20196;-65
2023/06/11 10:00:11;;;;;;;8.20;4.90;;;29.80;57.00;;;30.43;35.42;94395.50;5054971;28;20251;-65
2023/06/11 10:02:39;;;;;;;16.77;12.57;;;29.90;56.30;;;30.53;35.77;94391.94;5050738;28;20228;-60
2023/06/11 10:05:07;;;;;;;6.70;5.10;;;29.90;56.40;;;30.62;35.47;94387.56;5054310;28;20381;-61
2023/06/11 10:07:40;;;;;;;7.40;5.53;;;30.00;55.90;;;30.70;35.15;94384.25;5057619;28;20316;-66
2023/06/11 10:10:09;;;;;;;9.07;4.67;;;30.10;55.70;;;30.80;35.32;94383.41;5052757;28;20221;-66
2023/06/11 10:12:37;;;;;;;8.23;4.80;;;30.20;55.90;;;30.93;34.47;94371.91;5049236;28;20570;-65
2023/06/11 10:15:05;;;;;;;7.00;5.50;;;30.40;54.90;;;31.04;35.74;94367.28;5050636;28;20234;-66
2023/06/11 10:17:34;;;;;;;9.60;5.83;;;30.40;55.60;;;31.24;35.28;94381.81;5047408;28;20662;-61
2023/06/11 10:20:02;;;;;;;7.63;5.50;;;30.60;56.00;;;31.40;35.21;94375.19;5054284;28;20220;-65
2023/06/11 10:22:34;;;;;;;6.30;4.53;;;30.70;55.60;;;31.52;32.57;94365.88;5052465;28;20669;-66